createdAt,value
2022-07-29T00:01:50.278Z,15.63
2022-07-29T00:04:17.129Z,15.61
2022-07-29T00:06:43.871Z,15.62
2022-07-29T00:09:10.440Z,15.61
2022-07-29T00:11:36.857Z,15.57
2022-07-29T00:14:03.552Z,15.51
2022-07-29T00:16:30.194Z,15.57
2022-07-29T00:18:59.490Z,15.54
2022-07-29T00:21:28.281Z,15.55
2022-07-29T00:23:54.925Z,15.53
2022-07-29T00:26:21.356Z,15.56
2022-07-29T00:28:47.771Z,15.45
2022-07-29T00:31:14.231Z,15.46
2022-07-29T00:33:40.711Z,15.40
2022-07-29T00:36:07.220Z,15.45
2022-07-29T00:38:33.684Z,15.45
2022-07-29T00:41:00.159Z,15.40
2022-07-29T00:43:26.615Z,15.39
2022-07-29T00:45:53.472Z,15.33
2022-07-29T00:48:19.956Z,15.33
2022-07-29T00:50:46.401Z,15.31
2022-07-29T00:53:12.972Z,15.28
2022-07-29T00:55:39.495Z,15.24
2022-07-29T00:58:05.947Z,15.26
2022-07-29T01:00:32.506Z,15.23
2022-07-29T01:02:59.300Z,15.25
2022-07-29T01:05:48.178Z,15.22
2022-07-29T01:08:16.766Z,15.23
2022-07-29T01:10:44.689Z,15.23
2022-07-29T01:13:11.898Z,15.16
2022-07-29T01:15:50.428Z,15.22
2022-07-29T01:18:29.376Z,15.14
2022-07-29T01:21:24.795Z,15.13
2022-07-29T01:24:27.421Z,15.14
2022-07-29T01:27:04.839Z,15.13
2022-07-29T01:29:40.337Z,15.11
2022-07-29T01:32:27.498Z,15.16
2022-07-29T01:35:18.036Z,15.24
2022-07-29T01:38:06.236Z,15.27
2022-07-29T01:40:40.774Z,15.28
2022-07-29T01:43:12.158Z,15.30
2022-07-29T01:45:42.569Z,15.30
2022-07-29T01:48:16.142Z,15.34
2022-07-29T01:50:49.586Z,15.36
2022-07-29T01:53:38.088Z,15.44
2022-07-29T01:56:07.659Z,15.43
2022-07-29T01:58:37.717Z,15.42
2022-07-29T02:01:06.243Z,15.43
2022-07-29T02:03:36.650Z,15.45
2022-07-29T02:06:05.409Z,15.51
2022-07-29T02:08:33.797Z,15.42
2022-07-29T02:11:02.339Z,15.46
2022-07-29T02:13:30.896Z,15.37
2022-07-29T02:15:59.357Z,15.34
2022-07-29T02:18:28.949Z,15.33
2022-07-29T02:20:57.458Z,15.31
2022-07-29T02:23:24.901Z,15.33
2022-07-29T02:25:55.964Z,15.44
2022-07-29T02:28:26.350Z,15.39
2022-07-29T02:30:56.505Z,15.37
2022-07-29T02:33:25.599Z,15.41
2022-07-29T02:35:53.100Z,15.46
2022-07-29T02:38:39.750Z,15.49
2022-07-29T02:41:12.977Z,15.50
2022-07-29T02:43:41.578Z,15.53
2022-07-29T02:46:29.305Z,15.55
2022-07-29T02:49:01.905Z,15.47
2022-07-29T02:51:44.543Z,15.44
2022-07-29T02:54:17.477Z,15.38
2022-07-29T02:56:46.194Z,15.39
2022-07-29T02:59:14.978Z,15.43
2022-07-29T03:01:44.758Z,15.45
2022-07-29T03:04:14.258Z,15.50
2022-07-29T03:06:41.942Z,15.51
2022-07-29T03:09:13.240Z,15.60
2022-07-29T03:11:49.847Z,15.58
2022-07-29T03:14:20.357Z,15.55
2022-07-29T03:16:47.812Z,15.52
2022-07-29T03:19:14.703Z,15.47
2022-07-29T03:21:41.199Z,15.47
2022-07-29T03:24:10.561Z,15.52
2022-07-29T03:26:37.339Z,15.49
2022-07-29T03:29:03.776Z,15.53
2022-07-29T03:31:30.271Z,15.52
2022-07-29T03:33:56.859Z,15.57
2022-07-29T03:36:23.295Z,15.56
2022-07-29T03:38:50.337Z,15.59
2022-07-29T03:41:22.281Z,15.58
2022-07-29T03:43:52.533Z,15.56
2022-07-29T03:46:21.877Z,15.57
2022-07-29T03:48:51.503Z,15.55
2022-07-29T03:51:18.129Z,15.59
2022-07-29T03:53:45.337Z,15.57
2022-07-29T03:56:17.667Z,15.54
2022-07-29T03:58:45.297Z,15.61
2022-07-29T04:01:12.841Z,15.61
2022-07-29T04:03:40.032Z,15.63
2022-07-29T04:06:07.889Z,15.64
2022-07-29T04:08:35.668Z,15.61
2022-07-29T04:11:03.392Z,15.66
2022-07-29T04:13:29.957Z,15.60
2022-07-29T04:15:56.620Z,15.61
2022-07-29T04:18:23.104Z,15.52
2022-07-29T04:20:49.659Z,15.58
2022-07-29T04:23:16.328Z,15.58
2022-07-29T04:25:43.605Z,15.59
2022-07-29T04:28:10.614Z,15.59
2022-07-29T04:30:38.077Z,15.62
2022-07-29T04:33:07.790Z,15.61
2022-07-29T04:35:43.628Z,15.68
2022-07-29T04:38:19.034Z,15.67
2022-07-29T04:40:45.494Z,15.72
2022-07-29T04:43:14.276Z,15.72
2022-07-29T04:45:42.165Z,15.79
2022-07-29T04:48:08.765Z,15.84
2022-07-29T04:50:35.282Z,15.90
2022-07-29T04:53:01.731Z,15.99
2022-07-29T04:55:28.154Z,16.03
2022-07-29T04:57:54.596Z,16.12
2022-07-29T05:00:21.170Z,16.18
2022-07-29T05:02:47.609Z,16.23
2022-07-29T05:05:14.082Z,16.28
2022-07-29T05:07:41.877Z,16.40
2022-07-29T05:10:09.180Z,16.54
2022-07-29T05:12:35.836Z,16.62
2022-07-29T05:15:02.273Z,16.73
2022-07-29T05:17:28.750Z,16.84
2022-07-29T05:19:55.211Z,16.87
2022-07-29T05:22:22.331Z,16.92
2022-07-29T05:24:48.759Z,16.90
2022-07-29T05:27:15.178Z,16.98
2022-07-29T05:29:43.842Z,17.05
2022-07-29T05:32:12.777Z,17.04
2022-07-29T05:34:50.059Z,17.12
2022-07-29T05:37:19.429Z,17.21
2022-07-29T05:39:48.662Z,17.22
2022-07-29T05:42:17.250Z,17.27
2022-07-29T05:44:43.715Z,17.37
2022-07-29T05:47:10.194Z,17.47
2022-07-29T05:49:36.739Z,17.61
2022-07-29T05:52:03.794Z,17.73
2022-07-29T05:54:30.266Z,17.86
2022-07-29T05:56:56.686Z,18.07
2022-07-29T05:59:27.055Z,18.31
2022-07-29T06:01:57.947Z,18.43
2022-07-29T06:04:24.635Z,18.57
2022-07-29T06:06:51.113Z,18.59
2022-07-29T06:09:17.544Z,18.62
2022-07-29T06:11:44.706Z,18.65
2022-07-29T06:14:11.120Z,18.64
2022-07-29T06:16:37.950Z,18.77
2022-07-29T06:19:05.307Z,18.77
2022-07-29T06:21:31.736Z,18.73
2022-07-29T06:23:58.158Z,18.83
2022-07-29T06:26:30.605Z,18.88
2022-07-29T06:28:57.899Z,18.97
2022-07-29T06:31:24.353Z,19.06
2022-07-29T06:33:50.819Z,19.11
2022-07-29T06:36:17.234Z,19.17
2022-07-29T06:38:49.165Z,19.21
2022-07-29T06:41:17.197Z,19.37
2022-07-29T06:43:52.236Z,19.48
2022-07-29T06:46:22.341Z,19.46
2022-07-29T06:48:49.460Z,19.73
2022-07-29T06:51:17.332Z,19.80
2022-07-29T06:54:00.667Z,20.08
2022-07-29T06:56:30.952Z,20.28
2022-07-29T06:58:57.381Z,20.43
2022-07-29T07:01:23.863Z,20.60
2022-07-29T07:03:50.380Z,20.63
2022-07-29T07:06:17.269Z,20.66
2022-07-29T07:08:43.701Z,20.74
2022-07-29T07:11:10.167Z,20.88
2022-07-29T07:13:36.907Z,21.08
2022-07-29T07:16:04.151Z,21.08
2022-07-29T07:18:30.704Z,21.28
2022-07-29T07:20:58.357Z,21.39
2022-07-29T07:23:25.636Z,21.47
2022-07-29T07:25:52.294Z,21.61
2022-07-29T07:28:18.826Z,21.69
2022-07-29T07:30:51.213Z,21.68
2022-07-29T07:33:17.704Z,21.73
2022-07-29T07:35:45.194Z,21.93
2022-07-29T07:38:11.717Z,21.87
2022-07-29T07:40:38.185Z,21.89
2022-07-29T07:43:04.812Z,22.04
2022-07-29T07:45:33.605Z,22.06
2022-07-29T07:48:00.116Z,22.34
2022-07-29T07:50:26.941Z,22.60
2022-07-29T07:52:56.009Z,22.62
2022-07-29T07:55:22.784Z,22.79
2022-07-29T07:57:49.302Z,23.16
2022-07-29T08:00:17.216Z,23.37
2022-07-29T08:02:44.081Z,23.42
2022-07-29T08:05:12.705Z,23.79
2022-07-29T08:07:39.938Z,24.19
2022-07-29T08:10:06.824Z,24.40
2022-07-29T08:12:33.244Z,24.58
2022-07-29T08:14:59.864Z,24.87
2022-07-29T08:17:27.498Z,24.72
2022-07-29T08:19:53.954Z,24.93
2022-07-29T08:22:20.451Z,24.99
2022-07-29T08:24:53.424Z,25.17
2022-07-29T08:27:42.517Z,25.33
2022-07-29T08:30:08.365Z,25.44
2022-07-29T08:32:52.631Z,25.72
2022-07-29T08:35:21.805Z,25.76
2022-07-29T08:37:48.535Z,25.91
2022-07-29T08:40:15.351Z,26.15
2022-07-29T08:42:41.810Z,26.06
2022-07-29T08:45:08.876Z,26.41
2022-07-29T08:47:39.501Z,26.49
2022-07-29T08:50:06.210Z,26.62
2022-07-29T08:52:36.828Z,26.52
2022-07-29T08:55:03.270Z,26.60
2022-07-29T08:57:30.645Z,26.77
2022-07-29T09:00:06.253Z,27.06
2022-07-29T09:02:41.182Z,27.09
2022-07-29T09:05:08.341Z,27.06
2022-07-29T09:07:35.302Z,26.68
2022-07-29T09:10:02.666Z,26.64
2022-07-29T09:12:33.696Z,26.59
2022-07-29T09:15:02.721Z,26.72
2022-07-29T09:17:46.849Z,26.83
2022-07-29T09:20:16.386Z,26.46
2022-07-29T09:22:43.033Z,26.74
2022-07-29T09:25:12.414Z,26.62
2022-07-29T09:27:39.059Z,26.54
2022-07-29T09:30:08.096Z,26.39
2022-07-29T09:32:55.147Z,26.35
2022-07-29T09:35:24.204Z,26.40
2022-07-29T09:37:50.832Z,26.10
2022-07-29T09:40:22.383Z,26.20
2022-07-29T09:42:49.631Z,26.19
2022-07-29T09:45:33.961Z,26.20
2022-07-29T09:48:14.191Z,26.31
2022-07-29T09:50:42.040Z,26.47
2022-07-29T09:53:10.514Z,26.31
2022-07-29T09:55:49.296Z,26.28
2022-07-29T09:58:20.090Z,26.41
2022-07-29T10:00:47.897Z,26.51
2022-07-29T10:03:16.663Z,26.45
2022-07-29T10:05:44.454Z,26.37
2022-07-29T10:08:13.308Z,26.43
2022-07-29T10:10:42.655Z,26.46
2022-07-29T10:13:15.986Z,26.43
2022-07-29T10:15:45.794Z,26.28
2022-07-29T10:18:14.379Z,26.41
2022-07-29T10:20:41.099Z,26.09
2022-07-29T10:23:07.546Z,26.27
2022-07-29T10:25:34.447Z,26.10
2022-07-29T10:28:00.877Z,26.04
2022-07-29T10:30:27.699Z,26.18
2022-07-29T10:33:18.010Z,26.10
2022-07-29T10:36:09.611Z,26.07
2022-07-29T10:38:52.826Z,26.23
2022-07-29T10:41:46.668Z,26.43
2022-07-29T10:44:23.217Z,26.47
2022-07-29T10:46:52.070Z,26.85
2022-07-29T10:49:27.703Z,27.05
2022-07-29T10:52:12.402Z,27.26
2022-07-29T10:54:42.512Z,27.31
2022-07-29T10:57:53.340Z,27.64
2022-07-29T11:00:17.050Z,27.48
2022-07-29T11:02:45.290Z,27.86
2022-07-29T11:05:20.323Z,27.92
2022-07-29T11:08:20.368Z,27.84
2022-07-29T11:10:48.360Z,27.62
2022-07-29T11:13:44.564Z,27.64
2022-07-29T11:16:13.802Z,27.80
2022-07-29T11:19:14.007Z,27.78
2022-07-29T11:22:00.315Z,27.81
2022-07-29T11:24:30.282Z,27.88
2022-07-29T11:27:17.986Z,27.71
2022-07-29T11:29:56.363Z,27.87
2022-07-29T11:32:25.443Z,28.08
2022-07-29T11:35:17.280Z,27.97
2022-07-29T11:37:52.801Z,28.54
2022-07-29T11:40:24.651Z,28.52
2022-07-29T11:42:51.862Z,28.39
2022-07-29T11:45:43.218Z,28.44
2022-07-29T11:48:29.494Z,28.27
2022-07-29T11:50:54.712Z,28.61
2022-07-29T11:53:21.831Z,28.72
2022-07-29T11:55:56.131Z,29.03
2022-07-29T11:58:26.156Z,28.88
2022-07-29T12:00:53.185Z,28.86
2022-07-29T12:03:33.028Z,28.99
2022-07-29T12:06:02.935Z,28.90
2022-07-29T12:08:30.686Z,28.94
2022-07-29T12:10:57.201Z,29.15
2022-07-29T12:13:31.212Z,29.43
2022-07-29T12:16:04.791Z,29.56
2022-07-29T12:18:31.954Z,29.27
2022-07-29T12:21:03.439Z,29.17
2022-07-29T12:23:34.409Z,29.12
2022-07-29T12:26:04.455Z,29.17
2022-07-29T12:28:30.924Z,29.27
2022-07-29T12:30:57.519Z,29.50
2022-07-29T12:33:28.418Z,29.49
2022-07-29T12:36:06.310Z,29.60
2022-07-29T12:38:35.954Z,29.76
2022-07-29T12:41:04.436Z,29.79
2022-07-29T12:43:31.333Z,29.47
2022-07-29T12:45:58.474Z,29.21
2022-07-29T12:48:35.449Z,28.83
2022-07-29T12:51:03.284Z,29.43
2022-07-29T12:53:30.171Z,29.62
2022-07-29T12:56:00.462Z,29.72
2022-07-29T12:58:31.401Z,29.98
2022-07-29T13:01:07.168Z,30.10
2022-07-29T13:03:56.867Z,30.24
2022-07-29T13:06:31.570Z,30.10
2022-07-29T13:09:04.754Z,30.32
2022-07-29T13:11:35.299Z,29.92
2022-07-29T13:14:06.816Z,29.71
2022-07-29T13:16:33.815Z,29.63
2022-07-29T13:19:12.244Z,30.29
2022-07-29T13:21:39.815Z,30.41
2022-07-29T13:24:07.936Z,30.11
2022-07-29T13:26:34.523Z,30.36
2022-07-29T13:29:01.204Z,29.97
2022-07-29T13:31:27.746Z,30.22
2022-07-29T13:33:54.230Z,30.16
2022-07-29T13:36:21.348Z,29.82
2022-07-29T13:38:47.818Z,29.74
2022-07-29T13:41:14.294Z,29.47
2022-07-29T13:43:40.755Z,29.92
2022-07-29T13:46:07.280Z,29.96
2022-07-29T13:48:33.828Z,30.17
2022-07-29T13:51:00.271Z,29.68
2022-07-29T13:53:27.377Z,29.23
2022-07-29T13:55:54.143Z,29.37
2022-07-29T13:58:20.577Z,29.53
2022-07-29T14:00:47.632Z,29.43
2022-07-29T14:03:14.058Z,29.35
2022-07-29T14:05:40.487Z,29.70
2022-07-29T14:08:06.918Z,29.57
2022-07-29T14:10:43.783Z,29.68
2022-07-29T14:13:24.449Z,29.73
2022-07-29T14:15:51.906Z,29.77
2022-07-29T14:18:18.326Z,29.88
2022-07-29T14:20:44.847Z,29.69
2022-07-29T14:23:11.307Z,29.63
2022-07-29T14:25:40.747Z,29.78
2022-07-29T14:28:08.509Z,29.62
2022-07-29T14:30:34.948Z,29.63
2022-07-29T14:33:01.442Z,29.55
2022-07-29T14:35:27.898Z,29.56
2022-07-29T14:37:54.415Z,29.54
2022-07-29T14:40:21.043Z,29.70
2022-07-29T14:42:47.584Z,29.67
2022-07-29T14:45:14.017Z,29.52
2022-07-29T14:47:41.187Z,29.95
2022-07-29T14:50:08.662Z,29.59
2022-07-29T14:52:35.854Z,29.73
2022-07-29T14:55:02.875Z,29.64
2022-07-29T14:57:29.494Z,29.48
2022-07-29T14:59:56.327Z,29.26
2022-07-29T15:02:25.637Z,29.04
2022-07-29T15:05:02.028Z,29.19
2022-07-29T15:07:28.972Z,29.43
2022-07-29T15:09:59.524Z,29.44
2022-07-29T15:12:26.322Z,29.35
2022-07-29T15:14:52.820Z,29.56
2022-07-29T15:17:19.280Z,29.81
2022-07-29T15:19:45.764Z,29.86
2022-07-29T15:22:12.194Z,29.77
2022-07-29T15:24:38.603Z,29.57
2022-07-29T15:27:05.114Z,29.90
2022-07-29T15:29:31.660Z,30.13
2022-07-29T15:31:58.371Z,30.34
2022-07-29T15:34:24.945Z,29.90
2022-07-29T15:36:53.347Z,29.80
2022-07-29T15:39:21.733Z,29.69
2022-07-29T15:41:48.276Z,29.53
2022-07-29T15:44:14.693Z,29.72
2022-07-29T15:47:00.244Z,29.67
2022-07-29T15:49:47.555Z,29.26
2022-07-29T15:52:17.819Z,29.20
2022-07-29T15:54:44.347Z,29.16
2022-07-29T15:57:10.797Z,29.13
2022-07-29T15:59:37.440Z,29.20
2022-07-29T16:02:04.191Z,29.06
2022-07-29T16:04:31.934Z,28.85
2022-07-29T16:06:58.775Z,28.83
2022-07-29T16:09:26.450Z,28.95
2022-07-29T16:11:54.009Z,28.80
2022-07-29T16:14:20.571Z,28.81
2022-07-29T16:16:47.581Z,28.73
2022-07-29T16:19:14.550Z,28.74
2022-07-29T16:21:41.011Z,28.66
2022-07-29T16:24:08.004Z,28.67
2022-07-29T16:26:35.067Z,28.60
2022-07-29T16:29:01.943Z,28.71
2022-07-29T16:31:28.400Z,28.62
2022-07-29T16:33:56.045Z,28.54
2022-07-29T16:36:23.171Z,28.55
2022-07-29T16:38:50.343Z,28.51
2022-07-29T16:41:16.746Z,28.40
2022-07-29T16:43:43.166Z,28.31
2022-07-29T16:46:11.177Z,28.30
2022-07-29T16:48:45.332Z,28.33
2022-07-29T16:51:12.018Z,28.35
2022-07-29T16:53:41.190Z,28.39
2022-07-29T16:56:07.598Z,28.18
2022-07-29T16:58:40.503Z,27.69
2022-07-29T17:01:09.954Z,27.60
2022-07-29T17:03:36.433Z,27.73
2022-07-29T17:06:02.897Z,27.67
2022-07-29T17:08:29.314Z,27.77
2022-07-29T17:10:55.965Z,27.72
2022-07-29T17:13:22.387Z,27.72
2022-07-29T17:15:48.912Z,27.70
2022-07-29T17:18:15.426Z,27.77
2022-07-29T17:20:42.077Z,27.64
2022-07-29T17:23:08.713Z,27.70
2022-07-29T17:25:35.288Z,27.53
2022-07-29T17:28:01.724Z,27.54
2022-07-29T17:30:29.193Z,27.51
2022-07-29T17:32:55.769Z,27.49
2022-07-29T17:35:41.032Z,27.42
2022-07-29T17:38:07.479Z,27.48
2022-07-29T17:40:33.902Z,27.44
2022-07-29T17:43:00.337Z,27.43
2022-07-29T17:45:48.935Z,27.41
2022-07-29T17:48:13.776Z,27.29
2022-07-29T17:50:40.223Z,27.28
2022-07-29T17:53:09.607Z,27.34
2022-07-29T17:55:45.182Z,27.19
2022-07-29T17:58:11.764Z,27.26
2022-07-29T18:00:38.265Z,27.09
2022-07-29T18:03:04.751Z,27.08
2022-07-29T18:05:31.282Z,26.87
2022-07-29T18:07:57.877Z,26.86
2022-07-29T18:10:24.358Z,26.81
2022-07-29T18:12:52.370Z,26.74
2022-07-29T18:15:18.825Z,26.72
2022-07-29T18:17:56.580Z,26.65
2022-07-29T18:20:25.084Z,26.54
2022-07-29T18:22:51.545Z,26.48
2022-07-29T18:25:18.170Z,26.40
2022-07-29T18:27:45.094Z,26.24
2022-07-29T18:30:11.599Z,26.24
2022-07-29T18:32:38.034Z,26.32
2022-07-29T18:35:05.782Z,26.15
2022-07-29T18:38:01.135Z,26.26
2022-07-29T18:40:20.922Z,26.06
2022-07-29T18:42:47.638Z,26.05
2022-07-29T18:45:19.488Z,26.04
2022-07-29T18:47:47.549Z,25.95
2022-07-29T18:50:14.629Z,25.95
2022-07-29T18:52:41.200Z,25.91
2022-07-29T18:55:08.434Z,25.73
2022-07-29T18:57:54.524Z,25.64
2022-07-29T19:00:22.475Z,25.52
2022-07-29T19:02:49.275Z,25.39
2022-07-29T19:05:15.811Z,25.39
2022-07-29T19:07:42.247Z,25.40
2022-07-29T19:10:09.089Z,25.47
2022-07-29T19:12:35.582Z,25.53
2022-07-29T19:15:03.042Z,25.47
2022-07-29T19:17:29.468Z,25.45
2022-07-29T19:19:56.038Z,25.48
2022-07-29T19:22:22.823Z,25.35
2022-07-29T19:24:50.249Z,25.37
2022-07-29T19:27:17.449Z,25.26
2022-07-29T19:29:44.359Z,25.13
2022-07-29T19:32:10.942Z,25.11
2022-07-29T19:34:37.516Z,25.15
2022-07-29T19:37:04.117Z,25.15
2022-07-29T19:39:35.001Z,24.99
2022-07-29T19:42:03.551Z,25.05
2022-07-29T19:44:30.198Z,25.01
2022-07-29T19:46:56.987Z,25.00
2022-07-29T19:49:23.709Z,24.95
2022-07-29T19:51:50.246Z,24.98
2022-07-29T19:54:20.007Z,24.88
2022-07-29T19:56:46.447Z,24.94
2022-07-29T19:59:12.901Z,24.87
2022-07-29T20:01:39.544Z,24.93
2022-07-29T20:04:06.038Z,24.88
2022-07-29T20:06:32.575Z,24.85
2022-07-29T20:08:59.198Z,24.75
2022-07-29T20:11:26.564Z,24.75
2022-07-29T20:13:53.008Z,24.76
2022-07-29T20:16:19.511Z,24.73
2022-07-29T20:18:45.993Z,24.66
2022-07-29T20:21:12.420Z,24.64
2022-07-29T20:23:38.923Z,24.58
2022-07-29T20:26:09.288Z,24.61
2022-07-29T20:28:36.163Z,24.57
2022-07-29T20:31:02.779Z,24.52
2022-07-29T20:33:29.344Z,24.60
2022-07-29T20:35:56.621Z,24.49
2022-07-29T20:38:23.083Z,24.44
2022-07-29T20:40:50.698Z,24.26
2022-07-29T20:43:17.141Z,24.15
2022-07-29T20:45:43.563Z,24.11
2022-07-29T20:48:10.562Z,23.87
2022-07-29T20:50:37.024Z,23.77
2022-07-29T20:53:03.487Z,23.82
2022-07-29T20:55:29.963Z,23.61
2022-07-29T20:57:56.401Z,23.67
2022-07-29T21:00:22.916Z,23.61
2022-07-29T21:02:49.427Z,23.62
2022-07-29T21:05:16.036Z,23.61
2022-07-29T21:07:42.562Z,23.62
2022-07-29T21:10:09.398Z,23.51
2022-07-29T21:12:35.830Z,23.52
2022-07-29T21:15:06.235Z,23.43
2022-07-29T21:17:38.951Z,23.30
2022-07-29T21:20:08.485Z,23.40
2022-07-29T21:22:34.983Z,23.39
2022-07-29T21:25:01.643Z,23.36
2022-07-29T21:27:46.619Z,23.36
2022-07-29T21:30:13.053Z,23.41
2022-07-29T21:32:39.530Z,23.45
2022-07-29T21:35:14.508Z,23.38
2022-07-29T21:37:52.672Z,23.31
2022-07-29T21:40:19.091Z,23.40
2022-07-29T21:42:45.624Z,23.40
2022-07-29T21:45:13.422Z,23.36
2022-07-29T21:47:39.863Z,23.42
2022-07-29T21:50:06.646Z,23.41
2022-07-29T21:52:33.152Z,23.41
2022-07-29T21:54:59.600Z,23.38
2022-07-29T21:57:26.522Z,23.41
2022-07-29T21:59:53.039Z,23.40
2022-07-29T22:02:19.462Z,23.40
2022-07-29T22:04:45.965Z,23.35
2022-07-29T22:07:12.424Z,23.36
2022-07-29T22:09:38.841Z,23.29
2022-07-29T22:12:05.653Z,23.30
2022-07-29T22:14:32.082Z,23.29
2022-07-29T22:16:59.549Z,23.27
2022-07-29T22:19:27.514Z,23.26
2022-07-29T22:21:55.424Z,23.21
2022-07-29T22:24:21.875Z,23.17
2022-07-29T22:26:48.328Z,23.21
2022-07-29T22:29:17.593Z,23.06
2022-07-29T22:31:44.655Z,23.10
2022-07-29T22:34:13.340Z,23.09
2022-07-29T22:36:41.000Z,23.05
2022-07-29T22:39:07.520Z,23.07
2022-07-29T22:41:33.936Z,22.99
2022-07-29T22:44:00.407Z,22.95
2022-07-29T22:46:26.884Z,22.92
2022-07-29T22:48:53.362Z,22.93
2022-07-29T22:51:19.848Z,22.90
2022-07-29T22:53:46.942Z,22.87
2022-07-29T22:56:13.594Z,22.83
2022-07-29T22:58:40.051Z,22.86
2022-07-29T23:01:06.490Z,22.85
2022-07-29T23:03:33.015Z,22.74
2022-07-29T23:05:59.467Z,22.74
2022-07-29T23:08:26.099Z,22.73
2022-07-29T23:10:52.529Z,22.60
2022-07-29T23:13:18.962Z,22.60
2022-07-29T23:15:45.515Z,22.54
2022-07-29T23:18:12.219Z,22.53
2022-07-29T23:20:38.868Z,22.47
2022-07-29T23:23:05.317Z,22.53
2022-07-29T23:25:32.095Z,22.56
2022-07-29T23:27:58.529Z,22.44
2022-07-29T23:30:25.061Z,22.42
2022-07-29T23:32:51.678Z,22.46
2022-07-29T23:35:18.424Z,22.36
2022-07-29T23:37:46.132Z,22.30
2022-07-29T23:40:14.743Z,22.31
2022-07-29T23:42:42.285Z,22.23
2022-07-29T23:45:09.892Z,22.17
2022-07-29T23:47:36.303Z,22.21
2022-07-29T23:50:02.743Z,22.23
2022-07-29T23:52:29.271Z,22.17
2022-07-29T23:54:55.743Z,22.09
2022-07-29T23:57:42.190Z,22.00
